createdAt,value
2023-05-07T00:00:22.758Z,78.70
2023-05-07T00:01:57.953Z,78.78
2023-05-07T00:03:29.642Z,79.20
2023-05-07T00:04:51.578Z,79.22
2023-05-07T00:06:13.657Z,79.22
2023-05-07T00:07:54.788Z,78.84
2023-05-07T00:09:26.362Z,78.95
2023-05-07T00:11:11.535Z,79.20
2023-05-07T00:12:34.750Z,79.55
2023-05-07T00:14:08.226Z,79.25
2023-05-07T00:15:32.184Z,79.74
2023-05-07T00:17:05.700Z,79.13
2023-05-07T00:18:39.088Z,79.12
2023-05-07T00:20:10.310Z,79.32
2023-05-07T00:21:47.364Z,79.13
2023-05-07T00:23:24.128Z,79.15
2023-05-07T00:24:59.672Z,79.48
2023-05-07T00:26:33.186Z,79.10
2023-05-07T00:28:08.234Z,79.06
2023-05-07T00:29:30.318Z,78.84
2023-05-07T00:31:04.113Z,79.17
2023-05-07T00:32:37.843Z,79.24
2023-05-07T00:34:18.967Z,78.95
2023-05-07T00:35:52.651Z,79.03
2023-05-07T00:37:37.834Z,79.13
2023-05-07T00:39:23.346Z,79.58
2023-05-07T00:40:47.059Z,79.60
2023-05-07T00:42:09.274Z,79.37
2023-05-07T00:43:33.480Z,79.37
2023-05-07T00:44:56.209Z,79.46
2023-05-07T00:46:18.234Z,79.25
2023-05-07T00:48:07.704Z,78.94
2023-05-07T00:49:43.566Z,79.26
2023-05-07T00:51:12.679Z,79.43
2023-05-07T00:52:46.029Z,79.49
2023-05-07T00:54:12.557Z,78.96
2023-05-07T00:55:46.113Z,79.81
2023-05-07T00:57:17.332Z,79.46
2023-05-07T00:58:38.798Z,79.51
2023-05-07T01:00:10.439Z,79.25
2023-05-07T01:01:56.009Z,79.50
2023-05-07T01:03:29.402Z,79.29
2023-05-07T01:04:54.155Z,79.80
2023-05-07T01:06:35.160Z,79.58
2023-05-07T01:08:08.841Z,79.54
2023-05-07T01:09:58.742Z,79.40
2023-05-07T01:11:32.112Z,79.45
2023-05-07T01:13:05.583Z,79.59
2023-05-07T01:14:38.656Z,79.82
2023-05-07T01:16:12.403Z,79.71
2023-05-07T01:17:43.761Z,79.76
2023-05-07T01:19:30.028Z,79.69
2023-05-07T01:21:10.600Z,79.37
2023-05-07T01:22:47.326Z,79.46
2023-05-07T01:24:32.280Z,79.57
2023-05-07T01:26:17.364Z,79.46
2023-05-07T01:27:51.796Z,79.82
2023-05-07T01:29:26.722Z,79.80
2023-05-07T01:31:11.656Z,79.85
2023-05-07T01:32:47.536Z,79.88
2023-05-07T01:34:21.018Z,80.00
2023-05-07T01:36:02.010Z,79.91
2023-05-07T01:37:37.721Z,79.52
2023-05-07T01:39:06.585Z,79.67
2023-05-07T01:40:36.430Z,79.67
2023-05-07T01:42:17.626Z,79.25
2023-05-07T01:44:02.967Z,79.39
2023-05-07T01:45:38.890Z,79.45
2023-05-07T01:47:19.543Z,79.72
2023-05-07T01:48:46.885Z,79.45
2023-05-07T01:50:31.702Z,79.28
2023-05-07T01:52:12.263Z,79.52
2023-05-07T01:53:46.735Z,79.24
2023-05-07T01:55:16.265Z,79.06
2023-05-07T01:56:49.859Z,79.09
2023-05-07T01:58:23.003Z,79.49
2023-05-07T01:59:56.484Z,79.24
2023-05-07T02:01:28.034Z,79.23
2023-05-07T02:03:02.049Z,79.27
2023-05-07T02:04:44.898Z,79.44
2023-05-07T02:06:21.566Z,79.43
2023-05-07T02:07:57.616Z,79.66
2023-05-07T02:09:33.841Z,79.38
2023-05-07T02:11:15.639Z,79.47
2023-05-07T02:12:51.283Z,79.44
2023-05-07T02:14:16.442Z,79.50
2023-05-07T02:15:50.379Z,79.25
2023-05-07T02:17:12.416Z,79.45
2023-05-07T02:18:41.163Z,79.49
2023-05-07T02:20:14.570Z,79.23
2023-05-07T02:21:56.432Z,79.25
2023-05-07T02:23:41.860Z,78.94
2023-05-07T02:25:11.004Z,79.27
2023-05-07T02:26:58.143Z,79.56
2023-05-07T02:28:34.123Z,79.42
2023-05-07T02:30:09.576Z,79.68
2023-05-07T02:31:43.456Z,79.66
2023-05-07T02:33:19.059Z,79.40
2023-05-07T02:34:48.840Z,79.62
2023-05-07T02:36:29.665Z,79.56
2023-05-07T02:38:13.999Z,79.41
2023-05-07T02:39:47.671Z,79.22
2023-05-07T02:41:12.119Z,79.21
2023-05-07T02:42:38.350Z,79.09
2023-05-07T02:44:11.988Z,79.49
2023-05-07T02:45:44.717Z,79.24
2023-05-07T02:47:32.997Z,79.71
2023-05-07T02:48:56.675Z,79.48
2023-05-07T02:50:45.721Z,79.63
2023-05-07T02:52:31.228Z,79.18
2023-05-07T02:53:58.150Z,79.42
2023-05-07T02:55:31.330Z,79.51
2023-05-07T02:57:04.767Z,79.50
2023-05-07T02:58:49.689Z,79.73
2023-05-07T03:00:32.042Z,79.30
2023-05-07T03:02:08.361Z,79.47
2023-05-07T03:03:49.227Z,79.58
2023-05-07T03:05:21.435Z,79.49
2023-05-07T03:07:06.211Z,79.53
2023-05-07T03:08:50.911Z,79.67
2023-05-07T03:10:22.317Z,79.40
2023-05-07T03:11:51.346Z,79.15
2023-05-07T03:13:15.447Z,79.44
2023-05-07T03:14:48.694Z,79.54
2023-05-07T03:16:24.358Z,79.52
2023-05-07T03:18:09.522Z,79.71
2023-05-07T03:19:41.308Z,79.60
2023-05-07T03:21:05.740Z,79.34
2023-05-07T03:22:34.574Z,79.31
2023-05-07T03:23:57.164Z,79.38
2023-05-07T03:25:36.012Z,79.51
2023-05-07T03:27:11.661Z,79.56
2023-05-07T03:28:42.988Z,78.95
2023-05-07T03:30:19.900Z,79.30
2023-05-07T03:31:55.988Z,79.08
2023-05-07T03:33:20.561Z,79.45
2023-05-07T03:35:01.350Z,78.80
2023-05-07T03:36:39.216Z,78.80
2023-05-07T03:38:13.552Z,79.12
2023-05-07T03:39:51.241Z,79.17
2023-05-07T03:41:37.113Z,79.04
2023-05-07T03:43:10.732Z,79.40
2023-05-07T03:44:53.561Z,79.32
2023-05-07T03:46:23.417Z,79.30
2023-05-07T03:47:46.157Z,79.51
2023-05-07T03:49:10.755Z,79.65
2023-05-07T03:50:51.681Z,79.37
2023-05-07T03:52:26.656Z,79.43
2023-05-07T03:54:00.480Z,79.57
2023-05-07T03:55:36.801Z,79.48
2023-05-07T03:57:01.181Z,79.72
2023-05-07T03:58:35.548Z,79.60
2023-05-07T04:00:08.459Z,79.82
2023-05-07T04:01:42.982Z,79.66
2023-05-07T04:03:20.038Z,79.48
2023-05-07T04:04:53.196Z,79.95
2023-05-07T04:06:26.465Z,79.37
2023-05-07T04:07:52.810Z,79.56
2023-05-07T04:09:29.443Z,79.56
2023-05-07T04:11:05.034Z,79.60
2023-05-07T04:12:46.577Z,79.41
2023-05-07T04:14:23.251Z,79.32
2023-05-07T04:15:59.504Z,79.62
2023-05-07T04:17:26.277Z,79.20
2023-05-07T04:18:58.373Z,79.23
2023-05-07T04:20:43.618Z,79.44
2023-05-07T04:22:24.744Z,78.82
2023-05-07T04:24:00.845Z,79.42
2023-05-07T04:25:34.758Z,79.21
2023-05-07T04:27:14.300Z,79.37
2023-05-07T04:28:47.586Z,79.36
2023-05-07T04:30:12.643Z,79.24
2023-05-07T04:31:46.602Z,79.23
2023-05-07T04:33:18.511Z,79.25
2023-05-07T04:34:54.761Z,79.59
2023-05-07T04:36:16.716Z,79.46
2023-05-07T04:37:53.410Z,79.47
2023-05-07T04:39:38.682Z,79.03
2023-05-07T04:41:14.779Z,79.44
2023-05-07T04:42:56.386Z,79.24
2023-05-07T04:44:18.558Z,79.28
2023-05-07T04:45:54.021Z,79.70
2023-05-07T04:47:29.163Z,79.46
2023-05-07T04:49:03.002Z,79.12
2023-05-07T04:50:40.484Z,79.07
2023-05-07T04:52:14.073Z,78.78
2023-05-07T04:53:49.689Z,79.31
2023-05-07T04:55:13.743Z,79.36
2023-05-07T04:56:38.341Z,79.31
2023-05-07T04:58:02.310Z,79.10
2023-05-07T04:59:32.264Z,79.17
2023-05-07T05:00:57.471Z,78.94
2023-05-07T05:02:22.084Z,78.56
2023-05-07T05:04:03.191Z,78.67
2023-05-07T05:05:36.767Z,78.70
2023-05-07T05:07:09.927Z,78.55
2023-05-07T05:08:45.603Z,78.53
2023-05-07T05:10:15.454Z,78.34
2023-05-07T05:11:39.880Z,78.46
2023-05-07T05:13:15.593Z,78.39
2023-05-07T05:14:37.781Z,78.21
2023-05-07T05:15:59.763Z,78.31
2023-05-07T05:17:35.880Z,78.35
2023-05-07T05:19:01.036Z,78.61
2023-05-07T05:20:22.732Z,78.61
2023-05-07T05:22:07.965Z,79.00
2023-05-07T05:23:43.561Z,79.15
2023-05-07T05:25:05.148Z,78.84
2023-05-07T05:26:35.231Z,78.84
2023-05-07T05:27:57.503Z,78.61
2023-05-07T05:29:21.062Z,78.46
2023-05-07T05:30:58.028Z,78.50
2023-05-07T05:32:21.910Z,78.40
2023-05-07T05:34:05.137Z,77.94
2023-05-07T05:35:27.366Z,78.27
2023-05-07T05:36:48.865Z,78.00
2023-05-07T05:38:22.463Z,77.85
2023-05-07T05:39:56.554Z,77.85
2023-05-07T05:41:40.338Z,78.43
2023-05-07T05:43:10.151Z,78.40
2023-05-07T05:44:34.158Z,77.85
2023-05-07T05:46:09.859Z,77.88
2023-05-07T05:47:31.521Z,77.80
2023-05-07T05:49:16.804Z,78.33
2023-05-07T05:50:52.334Z,78.29
2023-05-07T05:52:18.485Z,78.33
2023-05-07T05:53:43.588Z,78.26
2023-05-07T05:55:07.625Z,78.31
2023-05-07T05:56:53.852Z,78.05
2023-05-07T05:58:16.292Z,77.98
2023-05-07T05:59:48.318Z,77.70
2023-05-07T06:01:12.940Z,77.91
2023-05-07T06:02:34.616Z,78.05
2023-05-07T06:04:09.408Z,78.19
2023-05-07T06:05:33.428Z,77.80
2023-05-07T06:06:55.284Z,77.86
2023-05-07T06:08:19.674Z,77.43
2023-05-07T06:09:41.909Z,77.36
2023-05-07T06:11:04.095Z,77.47
2023-05-07T06:12:29.115Z,77.42
2023-05-07T06:13:53.066Z,77.33
2023-05-07T06:15:15.258Z,77.08
2023-05-07T06:16:39.938Z,77.03
2023-05-07T06:18:09.619Z,77.13
2023-05-07T06:19:39.099Z,77.07
2023-05-07T06:21:03.843Z,76.68
2023-05-07T06:22:35.968Z,77.12
2023-05-07T06:24:11.942Z,77.08
2023-05-07T06:25:34.027Z,76.90
2023-05-07T06:26:59.433Z,76.87
2023-05-07T06:28:22.428Z,76.81
2023-05-07T06:29:45.013Z,76.82
2023-05-07T06:31:09.404Z,76.53
2023-05-07T06:32:31.077Z,76.83
2023-05-07T06:34:00.484Z,76.83
2023-05-07T06:35:27.091Z,75.91
2023-05-07T06:37:09.004Z,76.42
2023-05-07T06:38:47.304Z,76.20
2023-05-07T06:40:11.218Z,76.11
2023-05-07T06:41:56.930Z,75.84
2023-05-07T06:43:33.794Z,76.09
2023-05-07T06:45:23.366Z,75.81
2023-05-07T06:46:46.100Z,75.99
2023-05-07T06:48:12.706Z,76.07
2023-05-07T06:50:09.416Z,76.24
2023-05-07T06:51:43.587Z,75.89
2023-05-07T06:53:17.013Z,75.66
2023-05-07T06:54:41.289Z,75.60
2023-05-07T06:56:22.493Z,75.61
2023-05-07T06:58:09.807Z,76.02
2023-05-07T06:59:31.559Z,75.38
2023-05-07T07:01:12.207Z,75.54
2023-05-07T07:02:44.437Z,75.70
2023-05-07T07:04:13.496Z,75.24
2023-05-07T07:05:39.368Z,74.93
2023-05-07T07:07:05.462Z,74.99
2023-05-07T07:08:30.848Z,74.75
2023-05-07T07:10:06.243Z,74.98
2023-05-07T07:11:40.046Z,74.82
2023-05-07T07:13:01.885Z,74.65
2023-05-07T07:14:24.239Z,74.87
2023-05-07T07:15:48.195Z,74.30
2023-05-07T07:17:10.077Z,74.79
2023-05-07T07:18:43.478Z,74.41
2023-05-07T07:20:19.805Z,74.30
2023-05-07T07:21:55.557Z,74.40
2023-05-07T07:23:29.542Z,73.94
2023-05-07T07:25:03.275Z,74.29
2023-05-07T07:26:25.136Z,74.04
2023-05-07T07:27:51.889Z,74.02
2023-05-07T07:29:16.360Z,74.21
2023-05-07T07:30:40.578Z,73.60
2023-05-07T07:32:02.428Z,73.89
2023-05-07T07:33:35.846Z,73.55
2023-05-07T07:35:12.148Z,73.47
2023-05-07T07:36:46.218Z,73.02
2023-05-07T07:38:11.173Z,73.00
2023-05-07T07:39:35.080Z,72.75
2023-05-07T07:41:11.165Z,72.97
2023-05-07T07:42:40.117Z,73.24
2023-05-07T07:44:15.675Z,72.96
2023-05-07T07:45:50.660Z,72.88
2023-05-07T07:47:12.318Z,73.06
2023-05-07T07:48:34.197Z,73.02
2023-05-07T07:49:56.707Z,73.23
2023-05-07T07:51:18.828Z,73.13
2023-05-07T07:52:47.908Z,72.92
2023-05-07T07:54:11.994Z,72.87
2023-05-07T07:55:36.636Z,73.20
2023-05-07T07:56:58.869Z,73.20
2023-05-07T07:58:20.678Z,73.20
2023-05-07T07:59:49.367Z,73.37
2023-05-07T08:01:13.160Z,73.61
2023-05-07T08:02:58.456Z,73.45
2023-05-07T08:04:23.495Z,73.57
2023-05-07T08:05:57.094Z,73.58
2023-05-07T08:07:21.536Z,73.67
2023-05-07T08:08:50.728Z,73.62
2023-05-07T08:10:13.618Z,73.18
2023-05-07T08:11:37.621Z,73.07
2023-05-07T08:13:10.845Z,73.21
2023-05-07T08:14:35.245Z,72.98
2023-05-07T08:15:59.508Z,72.28
2023-05-07T08:17:23.313Z,72.62
2023-05-07T08:18:45.572Z,72.95
2023-05-07T08:20:14.846Z,72.52
2023-05-07T08:21:49.000Z,72.32
2023-05-07T08:23:13.196Z,71.97
2023-05-07T08:24:37.897Z,71.77
2023-05-07T08:26:01.981Z,71.68
2023-05-07T08:27:25.813Z,71.52
2023-05-07T08:28:55.768Z,71.58
2023-05-07T08:30:18.313Z,71.56
2023-05-07T08:31:40.587Z,71.41
2023-05-07T08:35:01.655Z,71.50
2023-05-07T08:36:23.143Z,71.18
2023-05-07T08:37:49.629Z,71.32
2023-05-07T08:39:12.826Z,71.42
2023-05-07T08:40:36.840Z,70.70
2023-05-07T08:42:06.186Z,70.71
2023-05-07T08:43:35.979Z,70.18
2023-05-07T08:45:00.249Z,69.77
2023-05-07T08:46:24.020Z,69.97
2023-05-07T08:47:51.544Z,70.18
2023-05-07T08:49:16.906Z,69.60
2023-05-07T08:50:50.616Z,70.69
2023-05-07T08:52:12.331Z,70.72
2023-05-07T08:53:41.868Z,70.78
2023-05-07T08:55:07.018Z,70.41
2023-05-07T08:56:28.937Z,70.12
2023-05-07T08:57:51.021Z,69.81
2023-05-07T08:59:17.426Z,69.34
2023-05-07T09:00:41.762Z,69.47
2023-05-07T09:02:11.240Z,69.31
2023-05-07T09:03:33.566Z,69.17
2023-05-07T09:04:55.118Z,68.85
2023-05-07T09:06:29.432Z,68.13
2023-05-07T09:07:53.937Z,68.21
2023-05-07T09:09:16.983Z,68.53
2023-05-07T09:10:40.786Z,68.63
2023-05-07T09:12:04.702Z,68.56
2023-05-07T09:13:27.691Z,68.39
2023-05-07T09:14:52.434Z,68.49
2023-05-07T09:16:14.613Z,68.80
2023-05-07T09:17:39.645Z,68.72
2023-05-07T09:19:02.150Z,68.81
2023-05-07T09:20:23.838Z,68.99
2023-05-07T09:21:45.659Z,69.19
2023-05-07T09:23:10.617Z,69.19
2023-05-07T09:24:36.237Z,69.29
2023-05-07T09:26:00.881Z,69.26
2023-05-07T09:27:23.381Z,69.38
2023-05-07T09:29:04.354Z,69.46
2023-05-07T09:30:38.267Z,69.04
2023-05-07T09:32:01.981Z,68.38
2023-05-07T09:33:24.165Z,68.51
2023-05-07T09:34:48.220Z,68.36
2023-05-07T09:36:19.961Z,68.07
2023-05-07T09:37:42.054Z,67.69
2023-05-07T09:39:05.968Z,68.00
2023-05-07T09:40:28.288Z,67.63
2023-05-07T09:41:53.640Z,67.78
2023-05-07T09:43:20.191Z,67.22
2023-05-07T09:44:50.735Z,66.88
2023-05-07T09:46:14.939Z,66.79
2023-05-07T09:47:48.287Z,66.69
2023-05-07T09:49:22.050Z,66.60
2023-05-07T09:50:44.973Z,66.67
2023-05-07T09:52:11.455Z,66.59
2023-05-07T09:53:36.764Z,66.68
2023-05-07T09:55:10.133Z,66.57
2023-05-07T09:56:34.924Z,66.82
2023-05-07T09:58:10.521Z,66.83
2023-05-07T09:59:34.773Z,66.69
2023-05-07T10:00:58.637Z,66.82
2023-05-07T10:02:21.416Z,66.96
2023-05-07T10:03:49.438Z,66.97
2023-05-07T10:05:13.642Z,67.19
2023-05-07T10:06:37.899Z,67.21
2023-05-07T10:07:59.834Z,67.15
2023-05-07T10:09:31.273Z,67.09
2023-05-07T10:10:57.669Z,67.30
2023-05-07T10:12:22.104Z,67.26
2023-05-07T10:13:49.697Z,66.93
2023-05-07T10:15:11.802Z,66.65
2023-05-07T10:16:41.456Z,67.02
2023-05-07T10:18:06.268Z,67.30
2023-05-07T10:19:28.700Z,67.32
2023-05-07T10:21:04.461Z,67.00
2023-05-07T10:22:28.441Z,66.89
2023-05-07T10:23:50.217Z,67.45
2023-05-07T10:25:12.444Z,66.73
2023-05-07T10:26:36.642Z,67.05
2023-05-07T10:28:09.940Z,66.86
2023-05-07T10:29:32.620Z,67.44
2023-05-07T10:31:07.101Z,67.34
2023-05-07T10:32:33.289Z,66.30
2023-05-07T10:33:54.989Z,65.99
2023-05-07T10:35:19.400Z,65.87
2023-05-07T10:36:46.179Z,65.57
2023-05-07T10:38:17.957Z,64.85
2023-05-07T10:39:40.121Z,65.89
2023-05-07T10:41:02.150Z,65.54
2023-05-07T10:42:24.789Z,65.58
2023-05-07T10:43:47.767Z,65.93
2023-05-07T10:45:15.154Z,65.46
2023-05-07T10:46:44.966Z,64.31
2023-05-07T10:50:00.645Z,63.48
2023-05-07T10:51:24.799Z,62.95
2023-05-07T10:52:52.116Z,62.91
2023-05-07T10:54:23.781Z,63.55
2023-05-07T10:55:50.978Z,63.68
2023-05-07T10:57:16.072Z,63.78
2023-05-07T10:58:40.217Z,62.68
2023-05-07T11:00:09.975Z,63.22
2023-05-07T11:01:34.110Z,62.58
2023-05-07T11:02:56.105Z,62.97
2023-05-07T11:04:19.274Z,63.28
2023-05-07T11:06:26.537Z,62.92
2023-05-07T11:07:55.484Z,62.51
2023-05-07T11:09:17.976Z,63.38
2023-05-07T11:10:50.518Z,63.31
2023-05-07T11:12:20.323Z,63.98
2023-05-07T11:13:52.649Z,64.17
2023-05-07T11:15:38.931Z,64.60
2023-05-07T11:17:05.933Z,64.54
2023-05-07T11:18:29.802Z,64.37
2023-05-07T11:20:03.189Z,64.47
2023-05-07T11:21:33.053Z,64.01
2023-05-07T11:23:13.854Z,63.63
2023-05-07T11:24:41.920Z,62.90
2023-05-07T11:26:05.991Z,62.33
2023-05-07T11:27:32.067Z,61.93
2023-05-07T11:29:06.076Z,62.02
2023-05-07T11:30:43.800Z,62.49
2023-05-07T11:32:13.713Z,62.56
2023-05-07T11:33:40.953Z,62.64
2023-05-07T11:35:05.812Z,62.34
2023-05-07T11:36:42.256Z,62.35
2023-05-07T11:38:04.139Z,61.84
2023-05-07T11:39:34.311Z,61.75
2023-05-07T11:41:03.602Z,61.64
2023-05-07T11:42:29.441Z,61.44
2023-05-07T11:43:53.739Z,61.33
2023-05-07T11:45:27.231Z,60.73
2023-05-07T11:47:07.517Z,60.23
2023-05-07T11:48:43.306Z,60.62
2023-05-07T11:50:12.883Z,59.93
2023-05-07T11:51:47.589Z,59.60
2023-05-07T11:53:22.133Z,59.20
2023-05-07T11:57:04.058Z,59.04
2023-05-07T11:58:28.209Z,59.25
2023-05-07T11:59:52.425Z,58.60
2023-05-07T12:01:24.037Z,58.94
2023-05-07T12:02:57.633Z,58.91
2023-05-07T12:04:22.374Z,58.70
2023-05-07T12:05:44.149Z,59.06
2023-05-07T12:07:08.360Z,59.12
2023-05-07T12:08:32.276Z,59.69
2023-05-07T12:10:05.594Z,59.22
2023-05-07T12:11:41.911Z,59.65
2023-05-07T12:13:10.970Z,59.79
2023-05-07T12:14:33.676Z,59.92
2023-05-07T12:16:09.542Z,60.06
2023-05-07T12:17:43.155Z,59.43
2023-05-07T12:19:09.891Z,59.46
2023-05-07T12:20:31.719Z,58.33
2023-05-07T12:21:53.517Z,59.05
2023-05-07T12:23:15.800Z,58.57
2023-05-07T12:24:42.109Z,57.96
2023-05-07T12:26:11.360Z,57.58
2023-05-07T12:27:47.845Z,57.93
2023-05-07T12:29:16.966Z,58.03
2023-05-07T12:30:43.388Z,58.13
2023-05-07T12:32:07.132Z,57.98
2023-05-07T12:33:29.782Z,57.94
2023-05-07T12:34:56.170Z,57.76
2023-05-07T12:36:31.848Z,57.45
2023-05-07T12:38:10.169Z,58.00
2023-05-07T12:39:50.696Z,57.23
2023-05-07T12:41:26.601Z,57.19
2023-05-07T12:43:00.215Z,56.98
2023-05-07T12:44:32.249Z,56.62
2023-05-07T12:46:08.130Z,57.47
2023-05-07T12:47:34.233Z,57.39
2023-05-07T12:48:58.209Z,58.13
2023-05-07T12:50:32.501Z,58.10
2023-05-07T12:52:03.827Z,58.00
2023-05-07T12:53:30.180Z,58.28
2023-05-07T12:55:04.086Z,58.76
2023-05-07T12:56:33.303Z,58.96
2023-05-07T12:58:06.712Z,59.21
2023-05-07T12:59:30.673Z,60.21
2023-05-07T13:01:01.211Z,59.18
2023-05-07T13:02:23.052Z,58.82
2023-05-07T13:03:44.893Z,58.96
2023-05-07T13:05:06.999Z,59.04
2023-05-07T13:06:38.169Z,59.18
2023-05-07T13:08:11.781Z,59.34
2023-05-07T13:09:37.995Z,59.17
2023-05-07T13:11:05.043Z,59.52
2023-05-07T13:12:38.705Z,59.88
2023-05-07T13:14:03.284Z,59.49
2023-05-07T13:15:36.754Z,59.63
2023-05-07T13:16:58.370Z,59.15
2023-05-07T13:18:23.012Z,59.25
2023-05-07T13:19:46.932Z,59.26
2023-05-07T13:21:08.740Z,58.81
2023-05-07T13:22:30.831Z,58.73
2023-05-07T13:23:55.086Z,58.55
2023-05-07T13:25:17.281Z,59.07
2023-05-07T13:26:41.387Z,58.81
2023-05-07T13:28:10.935Z,59.17
2023-05-07T13:29:35.340Z,59.14
2023-05-07T13:30:59.558Z,59.02
2023-05-07T13:32:35.165Z,59.65
2023-05-07T13:34:09.599Z,60.08
2023-05-07T13:35:31.777Z,60.35
2023-05-07T13:36:56.486Z,60.02
2023-05-07T13:38:18.870Z,59.88
2023-05-07T13:39:41.829Z,59.41
2023-05-07T13:41:03.743Z,58.85
2023-05-07T13:42:33.228Z,59.04
2023-05-07T13:43:56.954Z,58.99
2023-05-07T13:45:19.111Z,57.82
2023-05-07T13:46:40.650Z,57.33
2023-05-07T13:48:05.109Z,57.13
2023-05-07T13:49:27.040Z,56.93
2023-05-07T13:50:50.980Z,56.64
2023-05-07T13:52:19.980Z,56.64
2023-05-07T13:53:42.182Z,57.07
2023-05-07T13:55:06.566Z,56.97
2023-05-07T13:56:29.319Z,57.03
2023-05-07T13:57:50.772Z,57.11
2023-05-07T13:59:15.508Z,56.96
2023-05-07T14:00:37.345Z,57.41
2023-05-07T14:02:10.674Z,58.46
2023-05-07T14:03:40.235Z,58.70
2023-05-07T14:05:01.801Z,58.84
2023-05-07T14:06:31.018Z,58.25
2023-05-07T14:07:57.473Z,57.96
2023-05-07T14:09:19.633Z,58.32
2023-05-07T14:10:41.374Z,58.48
2023-05-07T14:12:05.688Z,58.83
2023-05-07T14:13:41.110Z,58.78
2023-05-07T14:15:16.564Z,58.80
2023-05-07T14:16:40.963Z,59.34
2023-05-07T14:18:14.510Z,59.18
2023-05-07T14:19:38.729Z,58.48
2023-05-07T14:21:14.303Z,57.48
2023-05-07T14:22:35.943Z,57.57
2023-05-07T14:24:00.930Z,57.62
2023-05-07T14:25:25.306Z,57.68
2023-05-07T14:26:47.016Z,57.46
2023-05-07T14:28:09.154Z,57.18
2023-05-07T14:29:31.344Z,57.24
2023-05-07T14:31:05.475Z,57.86
2023-05-07T14:32:34.435Z,57.80
2023-05-07T14:33:56.197Z,57.28
2023-05-07T14:35:18.401Z,57.22
2023-05-07T14:36:42.845Z,56.91
2023-05-07T14:38:04.612Z,56.81
2023-05-07T14:39:39.571Z,57.01
2023-05-07T14:41:01.269Z,57.41
2023-05-07T14:42:23.207Z,57.43
2023-05-07T14:43:54.396Z,57.46
2023-05-07T14:45:24.173Z,56.81
2023-05-07T14:46:47.923Z,57.51
2023-05-07T14:48:10.390Z,57.42
2023-05-07T14:49:34.277Z,57.50
2023-05-07T14:51:07.777Z,57.36
2023-05-07T14:52:33.647Z,56.71
2023-05-07T14:53:57.942Z,56.47
2023-05-07T14:55:43.541Z,56.36
2023-05-07T14:57:19.545Z,56.28
2023-05-07T14:58:48.860Z,56.22
2023-05-07T15:00:13.489Z,56.42
2023-05-07T15:01:47.083Z,56.04
2023-05-07T15:03:24.970Z,55.94
2023-05-07T15:04:47.211Z,56.19
2023-05-07T15:06:11.501Z,55.67
2023-05-07T15:07:37.676Z,55.27
2023-05-07T15:08:59.518Z,55.60
2023-05-07T15:10:28.754Z,55.33
2023-05-07T15:11:55.122Z,54.93
2023-05-07T15:13:24.278Z,55.17
2023-05-07T15:14:48.269Z,54.98
2023-05-07T15:16:10.238Z,54.31
2023-05-07T15:17:31.820Z,54.60
2023-05-07T15:18:53.974Z,54.32
2023-05-07T15:20:27.520Z,54.98
2023-05-07T15:21:49.361Z,54.89
2023-05-07T15:23:12.701Z,54.36
2023-05-07T15:24:37.473Z,54.68
2023-05-07T15:26:06.316Z,54.84
2023-05-07T15:27:28.319Z,55.02
2023-05-07T15:28:50.352Z,55.52
2023-05-07T15:30:31.344Z,55.43
2023-05-07T15:31:53.190Z,55.99
2023-05-07T15:33:15.559Z,56.34
2023-05-07T15:34:39.387Z,56.23
2023-05-07T15:36:00.716Z,56.73
2023-05-07T15:37:25.451Z,56.72
2023-05-07T15:38:49.708Z,57.04
2023-05-07T15:40:13.742Z,57.31
2023-05-07T15:41:37.976Z,56.86
2023-05-07T15:43:01.696Z,57.24
2023-05-07T15:44:36.369Z,57.23
2023-05-07T15:45:58.270Z,57.09
2023-05-07T15:47:22.509Z,57.40
2023-05-07T15:48:44.536Z,57.17
2023-05-07T15:50:08.591Z,56.92
2023-05-07T15:51:44.391Z,57.31
2023-05-07T15:53:20.438Z,56.65
2023-05-07T15:54:42.397Z,57.01
2023-05-07T15:56:03.860Z,57.06
2023-05-07T15:57:25.594Z,56.64
2023-05-07T15:58:49.991Z,56.61
2023-05-07T16:00:12.490Z,56.72
2023-05-07T16:01:33.853Z,56.78
2023-05-07T16:03:07.613Z,57.42
2023-05-07T16:04:31.462Z,57.32
2023-05-07T16:06:00.656Z,56.89
2023-05-07T16:07:31.758Z,56.45
2023-05-07T16:09:00.721Z,56.59
2023-05-07T16:10:29.957Z,56.45
2023-05-07T16:11:51.790Z,56.41
2023-05-07T16:13:21.185Z,56.25
2023-05-07T16:14:42.898Z,56.78
2023-05-07T16:16:06.811Z,56.80
2023-05-07T16:17:33.429Z,57.05
2023-05-07T16:18:55.418Z,57.07
2023-05-07T16:20:19.920Z,57.31
2023-05-07T16:21:42.126Z,57.74
2023-05-07T16:23:13.368Z,57.64
2023-05-07T16:24:49.784Z,58.01
2023-05-07T16:26:18.916Z,57.83
2023-05-07T16:27:51.874Z,58.31
2023-05-07T16:29:13.392Z,58.04
2023-05-07T16:30:47.290Z,58.38
2023-05-07T16:32:20.717Z,58.79
2023-05-07T16:33:42.962Z,59.02
2023-05-07T16:35:04.198Z,58.71
2023-05-07T16:36:38.035Z,58.76
2023-05-07T16:38:13.507Z,58.45
2023-05-07T16:39:43.198Z,58.62
2023-05-07T16:41:05.804Z,59.14
2023-05-07T16:42:32.168Z,58.52
2023-05-07T16:43:58.878Z,58.76
2023-05-07T16:45:23.285Z,58.84
2023-05-07T16:46:47.944Z,58.51
2023-05-07T16:48:25.029Z,58.66
2023-05-07T16:49:53.905Z,58.86
2023-05-07T16:51:15.380Z,58.36
2023-05-07T16:52:36.933Z,57.82
2023-05-07T16:53:58.654Z,57.46
2023-05-07T16:55:20.809Z,57.80
2023-05-07T16:56:49.964Z,58.13
2023-05-07T16:58:16.257Z,58.05
2023-05-07T16:59:38.310Z,57.90
2023-05-07T17:01:11.698Z,58.19
2023-05-07T17:02:35.591Z,58.38
2023-05-07T17:04:04.805Z,58.43
2023-05-07T17:05:38.433Z,58.09
2023-05-07T17:07:00.141Z,58.49
2023-05-07T17:08:21.962Z,58.54
2023-05-07T17:09:43.654Z,58.42
2023-05-07T17:11:16.985Z,58.63
2023-05-07T17:12:38.613Z,58.81
2023-05-07T17:14:04.803Z,59.01
2023-05-07T17:15:27.232Z,58.85
2023-05-07T17:16:56.179Z,59.08
2023-05-07T17:18:18.034Z,59.34
2023-05-07T17:19:40.026Z,59.39
2023-05-07T17:21:04.165Z,59.63
2023-05-07T17:22:26.059Z,59.86
2023-05-07T17:23:50.246Z,60.23
2023-05-07T17:25:14.257Z,60.31
2023-05-07T17:26:41.358Z,60.35
2023-05-07T17:28:05.279Z,60.23
2023-05-07T17:29:27.534Z,60.86
2023-05-07T17:30:49.448Z,60.59
2023-05-07T17:32:16.011Z,60.97
2023-05-07T17:33:38.038Z,60.96
2023-05-07T17:34:59.660Z,61.43
2023-05-07T17:36:22.519Z,61.42
2023-05-07T17:37:49.083Z,61.51
2023-05-07T17:39:10.893Z,61.88
2023-05-07T17:40:44.645Z,61.92
2023-05-07T17:42:14.090Z,61.79
2023-05-07T17:43:36.062Z,61.82
2023-05-07T17:44:57.983Z,62.12
2023-05-07T17:46:19.898Z,62.30
2023-05-07T17:47:41.730Z,62.04
2023-05-07T17:49:05.725Z,62.20
2023-05-07T17:50:28.399Z,62.53
2023-05-07T17:51:54.631Z,62.65
2023-05-07T17:53:18.703Z,63.00
2023-05-07T17:54:40.818Z,63.06
2023-05-07T17:56:04.686Z,63.20
2023-05-07T17:57:27.979Z,63.44
2023-05-07T18:00:14.634Z,63.56
2023-05-07T18:01:48.289Z,63.75
2023-05-07T18:03:12.418Z,63.62
2023-05-07T18:04:34.069Z,63.93
2023-05-07T18:05:55.657Z,63.76
2023-05-07T18:07:17.411Z,63.97
2023-05-07T18:08:49.070Z,63.84
2023-05-07T18:10:13.567Z,63.85
2023-05-07T18:11:37.239Z,64.17
2023-05-07T18:12:58.646Z,64.35
2023-05-07T18:14:24.352Z,64.44
2023-05-07T18:15:46.894Z,64.74
2023-05-07T18:17:10.649Z,64.85
2023-05-07T18:18:34.625Z,64.76
2023-05-07T18:20:05.880Z,65.03
2023-05-07T18:21:28.127Z,65.03
2023-05-07T18:22:49.845Z,65.25
2023-05-07T18:24:34.894Z,65.51
2023-05-07T18:25:58.957Z,65.84
2023-05-07T18:27:23.518Z,65.72
2023-05-07T18:28:46.345Z,65.73
2023-05-07T18:30:07.763Z,66.15
2023-05-07T18:31:36.027Z,66.23
2023-05-07T18:32:59.362Z,65.83
2023-05-07T18:34:21.592Z,65.72
2023-05-07T18:35:47.657Z,66.03
2023-05-07T18:37:11.714Z,66.06
2023-05-07T18:38:48.134Z,66.56
2023-05-07T18:40:17.253Z,66.74
2023-05-07T18:41:48.758Z,67.07
2023-05-07T18:43:22.642Z,67.29
2023-05-07T18:44:44.448Z,67.39
2023-05-07T18:46:06.458Z,67.15
2023-05-07T18:47:28.417Z,67.63
2023-05-07T18:48:57.155Z,67.79
2023-05-07T18:50:21.578Z,67.92
2023-05-07T18:51:43.711Z,67.94
2023-05-07T18:53:05.023Z,68.13
2023-05-07T18:54:36.541Z,67.76
2023-05-07T18:56:06.658Z,67.93
2023-05-07T18:57:29.580Z,67.80
2023-05-07T18:58:53.808Z,68.07
2023-05-07T19:00:15.841Z,68.68
2023-05-07T19:01:37.866Z,68.67
2023-05-07T19:03:06.938Z,68.96
2023-05-07T19:04:30.190Z,69.42
2023-05-07T19:05:56.467Z,69.32
2023-05-07T19:07:18.727Z,69.14
2023-05-07T19:08:47.747Z,69.28
2023-05-07T19:10:11.985Z,69.00
2023-05-07T19:11:33.662Z,69.53
2023-05-07T19:12:57.611Z,69.19